createdAt,value
2016-08-15T00:00:46.011Z,1039.35
2016-08-15T00:01:46.007Z,1039.37
2016-08-15T00:02:46.004Z,1039.4
2016-08-15T00:03:46.002Z,1039.43
2016-08-15T00:04:46.001Z,1039.47
2016-08-15T00:05:45.999Z,1039.52
2016-08-15T00:06:45.996Z,1039.52
2016-08-15T00:07:45.992Z,1039.56
2016-08-15T00:08:45.991Z,1039.56
2016-08-15T00:09:45.987Z,1039.56
2016-08-15T00:10:45.987Z,1039.63
2016-08-15T00:11:45.985Z,1039.63
2016-08-15T00:12:45.981Z,1039.65
2016-08-15T00:13:46.130Z,1039.68
2016-08-15T00:14:45.977Z,1039.72
2016-08-15T00:15:45.973Z,1039.76
2016-08-15T00:16:46.522Z,1039.71
2016-08-15T00:17:45.967Z,1039.73
2016-08-15T00:18:45.963Z,1039.8
2016-08-15T00:19:45.961Z,1039.77
2016-08-15T00:20:45.958Z,1039.78
2016-08-15T00:23:45.951Z,1039.78
2016-08-15T00:26:45.943Z,1039.75
2016-08-15T00:27:45.938Z,1039.8
2016-08-15T00:28:45.938Z,1039.77
2016-08-15T00:29:45.934Z,1039.87
2016-08-15T00:30:45.929Z,1039.82
2016-08-15T00:31:45.928Z,1039.9
2016-08-15T00:32:45.924Z,1039.9
2016-08-15T00:33:45.920Z,1039.88
2016-08-15T00:34:45.918Z,1039.92
2016-08-15T00:35:45.917Z,1039.87
2016-08-15T00:36:45.911Z,1039.86
2016-08-15T00:37:45.909Z,1039.92
2016-08-15T00:38:45.907Z,1039.86
2016-08-15T00:39:45.901Z,1039.92
2016-08-15T00:40:45.901Z,1039.96
2016-08-15T00:41:45.895Z,1039.98
2016-08-15T00:42:45.894Z,1039.98
2016-08-15T00:43:45.890Z,1039.96
2016-08-15T00:44:45.887Z,1039.98
2016-08-15T00:45:45.884Z,1040.04
2016-08-15T00:46:45.881Z,1040.04
2016-08-15T00:47:45.876Z,1040.05
2016-08-15T00:48:45.890Z,1040.08
2016-08-15T00:49:45.872Z,1040.12
2016-08-15T00:50:45.866Z,1040.12
2016-08-15T00:51:45.863Z,1040.09
2016-08-15T00:52:45.861Z,1040.12
2016-08-15T00:53:45.859Z,1040.1
2016-08-15T00:54:45.853Z,1040.09
2016-08-15T00:55:45.852Z,1040.11
2016-08-15T00:56:45.847Z,1040.14
2016-08-15T00:57:45.843Z,1040.12
2016-08-15T00:58:45.842Z,1040.16
2016-08-15T00:59:45.838Z,1040.13
2016-08-15T01:00:46.978Z,1040.19
2016-08-15T01:01:46.984Z,1040.23
2016-08-15T01:02:45.826Z,1040.25
2016-08-15T01:03:46.998Z,1040.25
2016-08-15T01:04:45.818Z,1040.24
2016-08-15T01:05:45.817Z,1040.23
2016-08-15T01:06:45.812Z,1040.25
2016-08-15T01:07:45.807Z,1040.27
2016-08-15T01:08:45.807Z,1040.3
2016-08-15T01:09:45.801Z,1040.33
2016-08-15T01:10:45.796Z,1040.32
2016-08-15T01:11:45.795Z,1040.29
2016-08-15T01:12:45.794Z,1040.33
2016-08-15T01:13:45.788Z,1040.35
2016-08-15T01:14:45.785Z,1040.34
2016-08-15T01:15:45.832Z,1040.32
2016-08-15T01:16:45.777Z,1040.32
2016-08-15T01:17:45.775Z,1040.34
2016-08-15T01:18:45.770Z,1040.32
2016-08-15T01:19:45.764Z,1040.33
2016-08-15T01:20:45.760Z,1040.34
2016-08-15T01:21:45.759Z,1040.33
2016-08-15T01:22:45.755Z,1040.31
2016-08-15T01:23:45.750Z,1040.34
2016-08-15T01:24:45.747Z,1040.37
2016-08-15T01:25:45.743Z,1040.33
2016-08-15T01:26:45.741Z,1040.32
2016-08-15T01:27:45.737Z,1040.3
2016-08-15T01:28:45.730Z,1040.28
2016-08-15T01:29:45.730Z,1040.34
2016-08-15T01:30:45.725Z,1040.33
2016-08-15T01:31:45.719Z,1040.33
2016-08-15T01:32:45.718Z,1040.33
2016-08-15T01:33:45.712Z,1040.27
2016-08-15T01:34:45.711Z,1040.29
2016-08-15T01:35:45.705Z,1040.26
2016-08-15T01:36:45.702Z,1040.26
2016-08-15T01:37:45.699Z,1040.29
2016-08-15T01:38:45.692Z,1040.3
2016-08-15T01:39:46.442Z,1040.32
2016-08-15T01:41:45.682Z,1040.24
2016-08-15T01:42:45.678Z,1040.26
2016-08-15T01:43:45.676Z,1040.26
2016-08-15T01:44:45.671Z,1040.24
2016-08-15T01:45:45.669Z,1040.24
2016-08-15T01:46:45.662Z,1040.24
2016-08-15T01:47:45.659Z,1040.25
2016-08-15T01:48:45.655Z,1040.26
2016-08-15T01:49:45.652Z,1040.22
2016-08-15T01:50:45.647Z,1040.23
2016-08-15T01:51:45.647Z,1040.22
2016-08-15T01:52:45.639Z,1040.24
2016-08-15T01:53:45.637Z,1040.26
2016-08-15T01:54:45.633Z,1040.25
2016-08-15T01:55:45.631Z,1040.29
2016-08-15T01:56:45.624Z,1040.31
2016-08-15T01:57:45.620Z,1040.32
2016-08-15T01:58:45.615Z,1040.32
2016-08-15T01:59:45.615Z,1040.34
2016-08-15T02:00:45.611Z,1040.38
2016-08-15T02:01:45.603Z,1040.4
2016-08-15T02:02:45.601Z,1040.43
2016-08-15T02:03:45.597Z,1040.49
2016-08-15T02:04:45.590Z,1040.49
2016-08-15T02:05:45.587Z,1040.54
2016-08-15T02:06:45.584Z,1040.52
2016-08-15T02:07:45.580Z,1040.53
2016-08-15T02:08:45.574Z,1040.5
2016-08-15T02:10:45.570Z,1040.47
2016-08-15T02:11:45.566Z,1040.52
2016-08-15T02:12:45.562Z,1040.53
2016-08-15T02:13:45.555Z,1040.55
2016-08-15T02:14:45.640Z,1040.54
2016-08-15T02:15:45.546Z,1040.57
2016-08-15T02:16:45.543Z,1040.54
2016-08-15T02:17:45.540Z,1040.55
2016-08-15T02:18:45.536Z,1040.56
2016-08-15T02:19:46.070Z,1040.53
2016-08-15T02:20:45.527Z,1040.6
2016-08-15T02:21:45.522Z,1040.58
2016-08-15T02:22:45.521Z,1040.6
2016-08-15T02:23:45.562Z,1040.53
2016-08-15T02:24:45.509Z,1040.54
2016-08-15T02:25:45.600Z,1040.52
2016-08-15T02:26:45.502Z,1040.51
2016-08-15T02:27:45.497Z,1040.52
2016-08-15T02:28:45.495Z,1040.53
2016-08-15T02:29:45.491Z,1040.55
2016-08-15T02:30:45.483Z,1040.53
2016-08-15T02:31:45.482Z,1040.54
2016-08-15T02:32:45.477Z,1040.55
2016-08-15T02:33:45.473Z,1040.62
2016-08-15T02:34:45.467Z,1040.61
2016-08-15T02:35:45.465Z,1040.6
2016-08-15T02:36:45.460Z,1040.64
2016-08-15T02:37:45.458Z,1040.67
2016-08-15T02:38:45.448Z,1040.68
2016-08-15T02:39:45.447Z,1040.68
2016-08-15T02:40:45.441Z,1040.71
2016-08-15T02:41:45.435Z,1040.71
2016-08-15T02:42:45.431Z,1040.72
2016-08-15T02:43:45.430Z,1040.75
2016-08-15T02:44:45.425Z,1040.81
2016-08-15T02:45:45.422Z,1040.73
2016-08-15T02:46:45.417Z,1040.81
2016-08-15T02:47:45.412Z,1040.77
2016-08-15T02:48:46.506Z,1040.77
2016-08-15T02:49:45.402Z,1040.81
2016-08-15T02:50:45.399Z,1040.79
2016-08-15T02:51:45.394Z,1040.85
2016-08-15T02:52:45.536Z,1040.81
2016-08-15T02:53:45.383Z,1040.85
2016-08-15T02:54:45.380Z,1040.83
2016-08-15T02:55:45.378Z,1040.83
2016-08-15T02:56:45.369Z,1040.87
2016-08-15T02:57:45.364Z,1040.86
2016-08-15T02:58:45.561Z,1040.83
2016-08-15T02:59:45.357Z,1040.85
2016-08-15T03:00:45.353Z,1040.87
2016-08-15T03:01:45.446Z,1040.84
2016-08-15T03:02:45.344Z,1040.92
2016-08-15T03:03:45.336Z,1040.92
2016-08-15T03:04:45.332Z,1040.94
2016-08-15T03:05:45.329Z,1040.93
2016-08-15T03:06:45.323Z,1040.95
2016-08-15T03:07:45.320Z,1040.96
2016-08-15T03:08:45.316Z,1040.98
2016-08-15T03:09:45.313Z,1040.96
2016-08-15T03:10:45.306Z,1040.96
2016-08-15T03:11:45.300Z,1040.98
2016-08-15T03:12:45.295Z,1040.99
2016-08-15T03:13:45.291Z,1041.02
2016-08-15T03:14:45.298Z,1041
2016-08-15T03:15:45.383Z,1040.98
2016-08-15T03:16:45.278Z,1040.99
2016-08-15T03:17:45.274Z,1040.97
2016-08-15T03:18:45.267Z,1040.97
2016-08-15T03:19:45.263Z,1040.95
2016-08-15T03:20:45.259Z,1040.97
2016-08-15T03:21:45.254Z,1040.95
2016-08-15T03:22:45.250Z,1040.93
2016-08-15T03:23:45.244Z,1040.96
2016-08-15T03:24:45.240Z,1040.95
2016-08-15T03:25:45.235Z,1040.96
2016-08-15T03:26:45.234Z,1040.98
2016-08-15T03:27:45.734Z,1041.02
2016-08-15T03:29:45.216Z,1041.03
2016-08-15T03:30:45.212Z,1041.02
2016-08-15T03:31:45.209Z,1041
2016-08-15T03:32:45.201Z,1041.02
2016-08-15T03:33:45.198Z,1040.99
2016-08-15T03:34:45.191Z,1041
2016-08-15T03:35:45.190Z,1041.03
2016-08-15T03:36:45.182Z,1041.06
2016-08-15T03:37:45.179Z,1041.05
2016-08-15T03:38:45.174Z,1041.06
2016-08-15T03:39:45.166Z,1041.07
2016-08-15T03:40:45.164Z,1041.08
2016-08-15T03:41:45.158Z,1041.05
2016-08-15T03:42:45.153Z,1041.12
2016-08-15T03:43:45.149Z,1041.1
2016-08-15T03:44:45.144Z,1041.1
2016-08-15T03:45:45.137Z,1041.07
2016-08-15T03:46:45.134Z,1041.12
2016-08-15T03:47:45.130Z,1041.11
2016-08-15T03:48:45.124Z,1041.06
2016-08-15T03:49:45.118Z,1041.1
2016-08-15T03:50:45.114Z,1041.06
2016-08-15T03:51:45.107Z,1041.06
2016-08-15T03:52:45.102Z,1041.04
2016-08-15T03:53:45.098Z,1041.02
2016-08-15T03:54:45.096Z,1041.04
2016-08-15T03:55:45.090Z,1041.03
2016-08-15T03:56:45.084Z,1041.03
2016-08-15T03:57:45.079Z,1041.03
2016-08-15T03:58:45.075Z,1041.01
2016-08-15T03:59:45.069Z,1040.96
2016-08-15T04:00:45.067Z,1040.99
2016-08-15T04:01:45.058Z,1041.02
2016-08-15T04:02:45.053Z,1041.02
2016-08-15T04:03:45.052Z,1041.04
2016-08-15T04:04:45.047Z,1040.98
2016-08-15T04:05:45.039Z,1040.96
2016-08-15T04:06:45.034Z,1040.96
2016-08-15T04:08:45.026Z,1040.88
2016-08-15T04:09:45.022Z,1040.82
2016-08-15T04:10:45.020Z,1040.78
2016-08-15T04:11:45.011Z,1040.79
2016-08-15T04:12:45.105Z,1040.77
2016-08-15T04:13:44.999Z,1040.76
2016-08-15T04:14:44.994Z,1040.71
2016-08-15T04:15:44.991Z,1040.67
2016-08-15T04:16:45.238Z,1040.66
2016-08-15T04:17:44.983Z,1040.65
2016-08-15T04:18:44.989Z,1040.66
2016-08-15T04:19:44.971Z,1040.6
2016-08-15T04:20:45.118Z,1040.47
2016-08-15T04:21:44.961Z,1040.3
2016-08-15T04:22:44.957Z,1040.11
2016-08-15T04:23:44.953Z,1039.87
2016-08-15T04:24:44.947Z,1039.68
2016-08-15T04:25:44.943Z,1039.49
2016-08-15T04:26:44.941Z,1039.29
2016-08-15T04:27:44.938Z,1039.09
2016-08-15T04:28:44.932Z,1039.01
2016-08-15T04:29:44.928Z,1038.83
2016-08-15T04:30:44.926Z,1038.71
2016-08-15T04:31:44.930Z,1038.55
2016-08-15T04:32:44.918Z,1038.42
2016-08-15T04:33:44.912Z,1038.28
2016-08-15T04:34:44.910Z,1038.13
2016-08-15T04:35:44.912Z,1038.07
2016-08-15T04:36:44.912Z,1037.87
2016-08-15T04:37:44.904Z,1037.75
2016-08-15T04:38:44.900Z,1037.67
2016-08-15T04:39:44.898Z,1037.48
2016-08-15T04:40:44.894Z,1037.6
2016-08-15T04:41:44.894Z,1037.73
2016-08-15T04:42:44.888Z,1037.89
2016-08-15T04:43:44.887Z,1037.89
2016-08-15T04:44:44.887Z,1037.69
2016-08-15T04:45:44.885Z,1037.76
2016-08-15T04:46:45.715Z,1037.81
2016-08-15T04:47:44.880Z,1037.55
2016-08-15T04:48:44.883Z,1037.29
2016-08-15T04:49:45.427Z,1037.04
2016-08-15T04:50:44.877Z,1036.83
2016-08-15T04:51:44.876Z,1036.58
2016-08-15T04:52:44.874Z,1036.39
2016-08-15T04:53:44.873Z,1036.2
2016-08-15T04:54:44.875Z,1036.05
2016-08-15T04:55:44.873Z,1035.87
2016-08-15T04:56:44.871Z,1035.78
2016-08-15T04:57:44.872Z,1035.74
2016-08-15T04:58:44.873Z,1035.83
2016-08-15T04:59:44.875Z,1035.67
2016-08-15T05:00:44.875Z,1035.5
2016-08-15T05:01:44.874Z,1035.32
2016-08-15T05:02:44.884Z,1035.31
2016-08-15T05:03:44.877Z,1035.33
2016-08-15T05:04:44.881Z,1035.32
2016-08-15T05:05:44.881Z,1035.21
2016-08-15T05:06:44.883Z,1035.08
2016-08-15T05:07:44.885Z,1034.98
2016-08-15T05:08:44.889Z,1034.79
2016-08-15T05:09:44.888Z,1034.84
2016-08-15T05:10:44.895Z,1034.8
2016-08-15T05:11:44.896Z,1034.75
2016-08-15T05:12:44.897Z,1034.83
2016-08-15T05:13:44.901Z,1035.13
2016-08-15T05:14:44.903Z,1035.03
2016-08-15T05:15:44.907Z,1034.97
2016-08-15T05:16:44.914Z,1034.96
2016-08-15T05:17:44.915Z,1034.84
2016-08-15T05:18:44.917Z,1035.29
2016-08-15T05:19:44.925Z,1035.44
2016-08-15T05:20:44.929Z,1035.22
2016-08-15T05:21:44.930Z,1035.35
2016-08-15T05:22:44.933Z,1035.04
2016-08-15T05:23:44.940Z,1034.66
2016-08-15T05:24:44.945Z,1034.45
2016-08-15T05:25:45.698Z,1034.18
2016-08-15T05:26:44.953Z,1033.98
2016-08-15T05:27:45.307Z,1033.8
2016-08-15T05:28:44.962Z,1033.63
2016-08-15T05:29:44.967Z,1033.71
2016-08-15T05:30:44.974Z,1034.07
2016-08-15T05:31:45.182Z,1034.38
2016-08-15T05:32:44.986Z,1034.64
2016-08-15T05:33:44.989Z,1034.93
2016-08-15T05:34:44.994Z,1035.25
2016-08-15T05:35:45.001Z,1035.44
2016-08-15T05:36:45.058Z,1035.62
2016-08-15T05:37:45.011Z,1035.76
2016-08-15T05:38:45.018Z,1035.91
2016-08-15T05:39:45.025Z,1036.05
2016-08-15T05:40:45.028Z,1036.14
2016-08-15T05:41:45.035Z,1036.16
2016-08-15T05:42:45.038Z,1036.14
2016-08-15T05:43:45.043Z,1036.16
2016-08-15T05:44:45.056Z,1036.12
2016-08-15T05:45:45.053Z,1036.1
2016-08-15T05:46:45.061Z,1036.13
2016-08-15T05:47:45.062Z,1035.62
2016-08-15T05:48:45.068Z,1035.68
2016-08-15T05:49:45.072Z,1035.7
2016-08-15T05:50:45.076Z,1035.65
2016-08-15T05:51:45.080Z,1035.74
2016-08-15T05:52:45.085Z,1035.89
2016-08-15T05:53:45.093Z,1035.93
2016-08-15T05:54:45.096Z,1035.98
2016-08-15T05:55:45.097Z,1036.01
2016-08-15T05:57:45.106Z,1036.01
2016-08-15T06:00:45.119Z,1036.03
2016-08-15T06:01:45.123Z,1036.1
2016-08-15T06:02:45.126Z,1036.13
2016-08-15T06:03:45.130Z,1036.22
2016-08-15T06:07:45.148Z,1036.84
2016-08-15T06:08:45.427Z,1035.93
2016-08-15T06:09:45.156Z,1035.06
2016-08-15T06:10:45.158Z,1034.38
2016-08-15T06:11:45.165Z,1033.93
2016-08-15T06:12:46.064Z,1033.47
2016-08-15T06:13:45.171Z,1033.2
2016-08-15T06:14:45.985Z,1032.98
2016-08-15T06:15:45.184Z,1032.73
2016-08-15T06:16:46.235Z,1032.58
2016-08-15T06:17:45.572Z,1032.56
2016-08-15T06:18:45.201Z,1032.37
2016-08-15T06:19:45.208Z,1032.27
2016-08-15T06:20:45.215Z,1032.12
2016-08-15T06:21:45.223Z,1031.97
2016-08-15T06:22:45.230Z,1031.84
2016-08-15T06:23:45.237Z,1031.81
2016-08-15T06:24:45.247Z,1031.75
2016-08-15T06:25:45.255Z,1031.72
2016-08-15T06:26:45.262Z,1031.76
2016-08-15T06:27:45.272Z,1031.75
2016-08-15T06:28:45.282Z,1031.71
2016-08-15T06:29:45.290Z,1031.59
2016-08-15T06:30:45.301Z,1031.47
2016-08-15T06:31:45.312Z,1031.4
2016-08-15T06:32:45.319Z,1031.35
2016-08-15T06:33:45.332Z,1031.27
2016-08-15T06:34:45.340Z,1031.22
2016-08-15T06:35:45.351Z,1031.15
2016-08-15T06:36:45.363Z,1031.18
2016-08-15T06:37:45.373Z,1031.27
2016-08-15T06:38:45.384Z,1031.25
2016-08-15T06:39:45.394Z,1031.24
2016-08-15T06:40:45.405Z,1031.31
2016-08-15T06:41:45.418Z,1031.33
2016-08-15T06:42:45.428Z,1031.45
2016-08-15T06:43:45.443Z,1031.47
2016-08-15T06:44:45.452Z,1031.68
2016-08-15T06:46:45.475Z,1031.53
2016-08-15T06:47:45.489Z,1033.49
2016-08-15T06:48:45.858Z,1032.52
2016-08-15T06:49:45.513Z,1032.78
2016-08-15T06:50:45.526Z,1033.68
2016-08-15T06:51:45.539Z,1034.63
2016-08-15T06:52:45.549Z,1033.97
2016-08-15T06:53:45.558Z,1033.45
2016-08-15T06:54:46.375Z,1032.93
2016-08-15T06:55:45.581Z,1032.61
2016-08-15T06:56:45.597Z,1032.28
2016-08-15T06:57:45.602Z,1032.13
2016-08-15T06:58:45.616Z,1031.9
2016-08-15T06:59:45.625Z,1031.71
2016-08-15T07:00:45.637Z,1031.54
2016-08-15T07:01:45.647Z,1031.27
2016-08-15T07:02:45.660Z,1031.08
2016-08-15T07:03:45.672Z,1031.85
2016-08-15T07:04:45.683Z,1031.37
2016-08-15T07:05:45.696Z,1030.98
2016-08-15T07:06:45.710Z,1030.78
2016-08-15T07:07:45.720Z,1030.59
2016-08-15T07:08:45.735Z,1030.51
2016-08-15T07:09:45.744Z,1030.56
2016-08-15T07:10:45.760Z,1030.53
2016-08-15T07:11:45.772Z,1030.42
2016-08-15T07:12:45.781Z,1030.32
2016-08-15T07:13:45.795Z,1030.28
2016-08-15T07:14:45.811Z,1030.26
2016-08-15T07:15:45.821Z,1030.12
2016-08-15T07:16:45.834Z,1030.1
2016-08-15T07:17:45.856Z,1030.09
2016-08-15T07:18:45.865Z,1030.16
2016-08-15T07:19:45.875Z,1030.17
2016-08-15T07:20:45.891Z,1030.22
2016-08-15T07:21:45.904Z,1030.23
2016-08-15T07:22:45.919Z,1030.18
2016-08-15T07:23:45.933Z,1029.5
2016-08-15T07:24:45.950Z,1031.55
2016-08-15T07:25:45.965Z,1031.12
2016-08-15T07:26:45.978Z,1030.7
2016-08-15T07:27:45.994Z,1030.42
2016-08-15T07:28:46.009Z,1030.2
2016-08-15T07:29:46.020Z,1030.2
2016-08-15T07:30:46.035Z,1030.07
2016-08-15T07:31:46.052Z,1029.94
2016-08-15T07:32:46.065Z,1030.29
2016-08-15T07:33:46.080Z,1030.25
2016-08-15T07:34:46.095Z,1030.03
2016-08-15T07:35:46.111Z,1029.4
2016-08-15T07:36:46.127Z,1030.06
2016-08-15T07:37:46.141Z,1030.93
2016-08-15T07:38:46.157Z,1031.8
2016-08-15T07:39:46.172Z,1031.81
2016-08-15T07:40:46.187Z,1031.11
2016-08-15T07:41:46.202Z,1030.74
2016-08-15T07:42:46.217Z,1030.94
2016-08-15T07:43:46.232Z,1031.91
2016-08-15T07:44:46.250Z,1032.41
2016-08-15T07:45:46.264Z,1033.02
2016-08-15T07:46:46.277Z,1032.89
2016-08-15T07:47:46.291Z,1032.71
2016-08-15T07:48:46.310Z,1033.28
2016-08-15T07:49:46.323Z,1033.08
2016-08-15T07:50:46.333Z,1032.3
2016-08-15T07:51:46.355Z,1031.74
2016-08-15T07:52:46.363Z,1031.57
2016-08-15T07:53:46.377Z,1032.14
2016-08-15T07:54:46.388Z,1032.96
2016-08-15T07:55:46.401Z,1032.28
2016-08-15T07:56:46.416Z,1032.32
2016-08-15T07:57:46.430Z,1033.22
2016-08-15T07:58:46.443Z,1033.96
2016-08-15T07:59:46.456Z,1032.63
2016-08-15T08:00:46.473Z,1032.1
2016-08-15T08:01:46.483Z,1032.95
2016-08-15T08:02:46.496Z,1032.32
2016-08-15T08:03:46.511Z,1032.09
2016-08-15T08:04:46.623Z,1032.93
2016-08-15T08:05:46.989Z,1033.67
2016-08-15T08:06:46.547Z,1033.93
2016-08-15T08:07:46.563Z,1033.87
2016-08-15T08:08:46.573Z,1034.46
2016-08-15T08:09:46.588Z,1034.86
2016-08-15T08:10:46.603Z,1034.52
2016-08-15T08:11:46.611Z,1034.41
2016-08-15T08:12:46.619Z,1034.7
2016-08-15T08:13:47.231Z,1035.16
2016-08-15T08:14:46.644Z,1035.5
2016-08-15T08:15:46.658Z,1035.46
2016-08-15T08:16:46.667Z,1034.51
2016-08-15T08:17:46.675Z,1033.73
2016-08-15T08:18:46.687Z,1034.58
2016-08-15T08:19:46.697Z,1035.17
2016-08-15T08:20:46.709Z,1035.52
2016-08-15T08:21:46.717Z,1035.74
2016-08-15T08:22:46.728Z,1035.69
2016-08-15T08:23:46.743Z,1035.91
2016-08-15T08:24:46.748Z,1035.24
2016-08-15T08:25:46.754Z,1034.02
2016-08-15T08:26:46.765Z,1034.25
2016-08-15T08:27:46.776Z,1034.07
2016-08-15T08:28:46.785Z,1033.3
2016-08-15T08:29:46.823Z,1032.86
2016-08-15T08:30:46.805Z,1032.62
2016-08-15T08:31:46.815Z,1032.84
2016-08-15T08:32:46.823Z,1032.94
2016-08-15T08:33:46.835Z,1033.86
2016-08-15T08:34:46.847Z,1034.64
2016-08-15T08:35:46.855Z,1033.54
2016-08-15T08:36:46.866Z,1033.35
2016-08-15T08:37:46.874Z,1033.8
2016-08-15T08:38:46.886Z,1034.27
2016-08-15T08:39:46.892Z,1034.71
2016-08-15T08:40:46.903Z,1035.09
2016-08-15T08:41:46.914Z,1035.41
2016-08-15T08:42:46.925Z,1035.83
2016-08-15T08:43:46.934Z,1036.14
2016-08-15T08:44:46.943Z,1036.42
2016-08-15T08:45:47.250Z,1036.59
2016-08-15T08:46:46.964Z,1036.81
2016-08-15T08:47:46.973Z,1037.01
2016-08-15T08:48:47.006Z,1037.18
2016-08-15T08:50:46.995Z,1037.5
2016-08-15T08:51:47.004Z,1037.7
2016-08-15T08:52:47.012Z,1037.85
2016-08-15T08:53:47.021Z,1038
2016-08-15T08:54:47.027Z,1038.02
2016-08-15T08:55:47.034Z,1038.07
2016-08-15T08:56:47.041Z,1038.1
2016-08-15T08:57:47.052Z,1038.27
2016-08-15T08:58:47.054Z,1038.35
2016-08-15T08:59:47.062Z,1038.46
2016-08-15T09:00:47.070Z,1038.49
2016-08-15T09:01:47.073Z,1038.54
2016-08-15T09:02:47.080Z,1038.41
2016-08-15T09:03:47.089Z,1038.41
2016-08-15T09:04:47.091Z,1038.46
2016-08-15T09:05:47.097Z,1038.51
2016-08-15T09:06:47.100Z,1038.56
2016-08-15T09:07:47.108Z,1038.6
2016-08-15T09:08:47.113Z,1038.65
2016-08-15T09:09:47.118Z,1038.66
2016-08-15T09:10:47.119Z,1038.7
2016-08-15T09:11:47.124Z,1038.75
2016-08-15T09:12:47.130Z,1038.75
2016-08-15T09:13:47.132Z,1038.73
2016-08-15T09:14:47.137Z,1038.7
2016-08-15T09:15:47.142Z,1038.69
2016-08-15T09:16:47.144Z,1038.75
2016-08-15T09:17:47.148Z,1038.74
2016-08-15T09:18:47.153Z,1038.72
2016-08-15T09:19:47.657Z,1038.66
2016-08-15T09:21:47.164Z,1038.44
2016-08-15T09:22:47.169Z,1038.26
2016-08-15T09:23:59.902Z,1038.04
2016-08-15T09:24:47.174Z,1037.83
2016-08-15T09:25:47.479Z,1037.72
2016-08-15T09:26:47.183Z,1037.61
2016-08-15T09:27:47.188Z,1037.57
2016-08-15T09:28:47.190Z,1037.45
2016-08-15T09:29:47.444Z,1037.36
2016-08-15T09:30:47.198Z,1037.26
2016-08-15T09:31:47.203Z,1037.21
2016-08-15T09:32:47.209Z,1037.16
2016-08-15T09:33:47.213Z,1037.09
2016-08-15T09:34:47.215Z,1036.89
2016-08-15T09:35:47.221Z,1036.82
2016-08-15T09:36:47.224Z,1036.81
2016-08-15T09:37:47.231Z,1036.76
2016-08-15T09:38:47.233Z,1036.77
2016-08-15T09:39:47.239Z,1036.82
2016-08-15T09:40:47.246Z,1036.83
2016-08-15T09:41:47.247Z,1036.74
2016-08-15T09:42:47.255Z,1036.85
2016-08-15T09:43:47.260Z,1036.91
2016-08-15T09:44:47.264Z,1036.91
2016-08-15T09:46:00.002Z,1037.04
2016-08-15T09:46:47.273Z,1037.07
2016-08-15T09:47:47.279Z,1037.11
2016-08-15T09:48:47.283Z,1037.27
2016-08-15T09:49:47.287Z,1037.35
2016-08-15T09:50:47.293Z,1037.45
2016-08-15T09:51:47.297Z,1037.51
2016-08-15T09:52:47.302Z,1037.58
2016-08-15T09:53:47.310Z,1037.6
2016-08-15T09:54:47.311Z,1037.54
2016-08-15T09:55:47.317Z,1037.54
2016-08-15T09:56:47.333Z,1037.48
2016-08-15T09:57:47.324Z,1037.39
2016-08-15T09:58:47.330Z,1037.25
2016-08-15T09:59:47.335Z,1037.15
2016-08-15T10:00:48.524Z,1037
2016-08-15T10:01:47.727Z,1036.85
2016-08-15T10:02:47.349Z,1036.82
2016-08-15T10:03:47.352Z,1036.79
2016-08-15T10:04:47.357Z,1036.76
2016-08-15T10:05:47.362Z,1036.82
2016-08-15T10:06:47.369Z,1036.85
2016-08-15T10:08:47.376Z,1036.82
2016-08-15T10:09:48.147Z,1036.84
2016-08-15T10:10:47.686Z,1036.89
2016-08-15T10:11:47.391Z,1036.99
2016-08-15T10:12:47.398Z,1037.03
2016-08-15T10:13:47.401Z,1037.05
2016-08-15T10:14:47.405Z,1037.01
2016-08-15T10:15:47.412Z,1036.96
2016-08-15T10:16:47.417Z,1036.91
2016-08-15T10:17:47.419Z,1036.84
2016-08-15T10:19:47.433Z,1036.78
2016-08-15T10:20:47.435Z,1036.74
2016-08-15T10:21:47.439Z,1036.74
2016-08-15T10:22:47.443Z,1036.78
2016-08-15T10:23:47.452Z,1036.78
2016-08-15T10:24:47.454Z,1036.83
2016-08-15T10:25:47.458Z,1036.9
2016-08-15T10:26:47.473Z,1036.96
2016-08-15T10:27:47.467Z,1037.06
2016-08-15T10:28:47.473Z,1037.07
2016-08-15T10:29:47.477Z,1037.09
2016-08-15T10:30:47.482Z,1037.1
2016-08-15T10:31:47.489Z,1037.02
2016-08-15T10:32:47.490Z,1037
2016-08-15T10:33:47.499Z,1037
2016-08-15T10:34:47.503Z,1036.98
2016-08-15T10:35:47.507Z,1036.93
2016-08-15T10:36:47.510Z,1036.89
2016-08-15T10:37:47.515Z,1036.98
2016-08-15T10:39:47.526Z,1037.03
2016-08-15T10:40:47.529Z,1036.99
2016-08-15T10:41:47.533Z,1036.88
2016-08-15T10:42:47.538Z,1036.77
2016-08-15T10:43:47.542Z,1036.67
2016-08-15T10:44:47.549Z,1036.6
2016-08-15T10:45:47.552Z,1036.59
2016-08-15T10:46:47.557Z,1036.58
2016-08-15T10:47:48.664Z,1036.52
2016-08-15T10:48:47.567Z,1036.46
2016-08-15T10:49:47.773Z,1036.4
2016-08-15T10:50:47.577Z,1036.29
2016-08-15T10:51:48.132Z,1036.14
2016-08-15T10:52:47.586Z,1036.05
2016-08-15T10:53:47.592Z,1035.95
2016-08-15T10:54:47.597Z,1035.91
2016-08-15T10:55:47.599Z,1035.91
2016-08-15T10:56:47.604Z,1035.89
2016-08-15T10:57:47.612Z,1035.93
2016-08-15T10:58:47.614Z,1035.87
2016-08-15T10:59:47.621Z,1035.77
2016-08-15T11:00:47.626Z,1035.7
2016-08-15T11:01:47.632Z,1035.67
2016-08-15T11:02:47.636Z,1035.63
2016-08-15T11:03:47.643Z,1035.66
2016-08-15T11:04:47.649Z,1035.63
2016-08-15T11:05:47.652Z,1035.63
2016-08-15T11:06:47.657Z,1035.73
2016-08-15T11:07:47.664Z,1035.71
2016-08-15T11:08:47.669Z,1035.82
2016-08-15T11:09:47.674Z,1035.89
2016-08-15T11:10:47.680Z,1036.01
2016-08-15T11:11:47.686Z,1036.16
2016-08-15T11:12:47.692Z,1036.21
2016-08-15T11:13:47.698Z,1036.22
2016-08-15T11:14:47.703Z,1036.18
2016-08-15T11:15:47.711Z,1036.13
2016-08-15T11:17:47.719Z,1036.04
2016-08-15T11:18:47.725Z,1036.02
2016-08-15T11:19:47.733Z,1036.14
2016-08-15T11:20:47.736Z,1036.19
2016-08-15T11:21:47.742Z,1036.27
2016-08-15T11:22:47.747Z,1036.38
2016-08-15T11:23:47.757Z,1036.5
2016-08-15T11:24:47.757Z,1036.56
2016-08-15T11:25:48.991Z,1036.58
2016-08-15T11:26:47.771Z,1036.66
2016-08-15T11:28:47.782Z,1036.74
2016-08-15T11:29:47.787Z,1036.73
2016-08-15T11:30:47.793Z,1036.68
2016-08-15T11:31:47.796Z,1036.51
2016-08-15T11:32:47.800Z,1036.47
2016-08-15T11:33:47.807Z,1036.37
2016-08-15T11:34:47.810Z,1036.36
2016-08-15T11:35:47.815Z,1036.26
2016-08-15T11:36:47.821Z,1036.13
2016-08-15T11:37:47.827Z,1036.18
2016-08-15T11:38:47.828Z,1036.16
2016-08-15T11:39:51.937Z,1036.21
2016-08-15T11:40:47.839Z,1036.3
2016-08-15T11:41:47.847Z,1036.31
2016-08-15T11:42:47.852Z,1036.24
2016-08-15T11:43:47.856Z,1036.21
2016-08-15T11:44:47.861Z,1036.14
2016-08-15T11:45:47.863Z,1036.15
2016-08-15T11:46:47.872Z,1035.95
2016-08-15T11:47:47.876Z,1035.74
2016-08-15T11:48:47.881Z,1035.49
2016-08-15T11:49:47.884Z,1035.26
2016-08-15T11:50:47.890Z,1035.24
2016-08-15T11:51:47.898Z,1035.28
2016-08-15T11:52:47.900Z,1035.31
2016-08-15T11:53:47.905Z,1035.34
2016-08-15T11:54:47.912Z,1035.54
2016-08-15T11:56:47.923Z,1035.78
2016-08-15T11:57:47.926Z,1035.95
2016-08-15T11:58:47.933Z,1036.08
2016-08-15T11:59:47.940Z,1036.13
2016-08-15T12:00:47.946Z,1036.2
2016-08-15T12:01:47.951Z,1036.16
2016-08-15T12:02:47.976Z,1036.2
2016-08-15T12:03:47.962Z,1036.2
2016-08-15T12:05:47.972Z,1036.18
2016-08-15T12:06:47.977Z,1036.04
2016-08-15T12:07:47.979Z,1035.93
2016-08-15T12:08:48.208Z,1035.78
2016-08-15T12:09:47.994Z,1035.72
2016-08-15T12:10:47.999Z,1035.6
2016-08-15T12:11:48.001Z,1035.67
2016-08-15T12:12:48.009Z,1035.65
2016-08-15T12:13:48.013Z,1035.54
2016-08-15T12:14:48.019Z,1035.43
2016-08-15T12:15:48.027Z,1035.34
2016-08-15T12:16:48.031Z,1035.21
2016-08-15T12:17:48.037Z,1035.11
2016-08-15T12:18:48.043Z,1034.99
2016-08-15T12:19:48.048Z,1034.94
2016-08-15T12:20:48.052Z,1035
2016-08-15T12:21:48.058Z,1035.09
2016-08-15T12:22:48.066Z,1035.25
2016-08-15T12:23:48.077Z,1035.39
2016-08-15T12:24:48.078Z,1035.54
2016-08-15T12:25:48.084Z,1035.57
2016-08-15T12:26:48.086Z,1035.58
2016-08-15T12:27:48.096Z,1035.62
2016-08-15T12:28:48.099Z,1035.64
2016-08-15T12:29:48.104Z,1035.58
2016-08-15T12:30:48.111Z,1035.63
2016-08-15T12:31:48.116Z,1035.59
2016-08-15T12:32:48.124Z,1035.6